createdAt,value
2018-07-04T00:01:55.000Z,32.4
2018-07-04T00:03:55.000Z,32.3
2018-07-04T00:05:55.000Z,32.3
2018-07-04T00:07:55.000Z,32.3
2018-07-04T00:08:55.000Z,32.3
2018-07-04T00:10:55.000Z,32.4
2018-07-04T00:12:55.000Z,32.4
2018-07-04T00:13:55.000Z,32.4
2018-07-04T00:14:55.000Z,32.5
2018-07-04T00:16:55.000Z,32.5
2018-07-04T00:17:55.000Z,32.5
2018-07-04T00:19:40.000Z,32.6
2018-07-04T00:20:55.000Z,32.6
2018-07-04T00:21:55.000Z,32.6
2018-07-04T00:23:40.000Z,32.6
2018-07-04T00:24:55.000Z,32.5
2018-07-04T00:25:55.000Z,32.6
2018-07-04T00:27:55.000Z,32.5
2018-07-04T00:29:55.000Z,32.5
2018-07-04T00:31:55.000Z,32.4
2018-07-04T00:33:55.000Z,32.3
2018-07-04T00:35:55.000Z,32.2
2018-07-04T00:37:55.000Z,32.2
2018-07-04T00:39:55.000Z,32.2
2018-07-04T00:40:55.000Z,32.3
2018-07-04T00:42:55.000Z,32.3
2018-07-04T00:44:40.000Z,32.3
2018-07-04T00:45:55.000Z,32.2
2018-07-04T00:47:55.000Z,32.2
2018-07-04T00:49:55.000Z,32.2
2018-07-04T00:50:55.000Z,32.2
2018-07-04T00:52:55.000Z,32.2
2018-07-04T00:53:55.000Z,32.2
2018-07-04T00:55:55.000Z,32.2
2018-07-04T00:56:55.000Z,32.2
2018-07-04T00:57:55.000Z,32.3
2018-07-04T00:59:55.000Z,32.3
2018-07-04T01:00:55.000Z,32.3
2018-07-04T01:02:55.000Z,32.3
2018-07-04T01:04:55.000Z,32.3
2018-07-04T01:05:55.000Z,32.3
2018-07-04T01:07:55.000Z,32.3
2018-07-04T01:09:55.000Z,32.3
2018-07-04T01:10:55.000Z,32.3
2018-07-04T01:11:55.000Z,32.3
2018-07-04T01:12:55.000Z,32.3
2018-07-04T01:13:55.000Z,32.3
2018-07-04T01:15:55.000Z,32.4
2018-07-04T01:16:55.000Z,32.4
2018-07-04T01:17:55.000Z,32.5
2018-07-04T01:19:55.000Z,32.5
2018-07-04T01:21:55.000Z,32.4
2018-07-04T01:23:40.000Z,32.4
2018-07-04T01:24:55.000Z,32.3
2018-07-04T01:25:55.000Z,32.3
2018-07-04T01:27:55.000Z,32.4
2018-07-04T01:28:55.000Z,32.4
2018-07-04T01:30:55.000Z,32.4
2018-07-04T01:31:55.000Z,32.4
2018-07-04T01:33:55.000Z,32.5
2018-07-04T01:35:55.000Z,32.4
2018-07-04T01:36:55.000Z,32.3
2018-07-04T01:37:55.000Z,32.3
2018-07-04T01:39:40.000Z,32.4
2018-07-04T01:40:55.000Z,32.3
2018-07-04T01:42:55.000Z,32.3
2018-07-04T01:44:55.000Z,32.3
2018-07-04T01:45:55.000Z,32.3
2018-07-04T01:46:55.000Z,32.4
2018-07-04T01:48:55.000Z,32.4
2018-07-04T01:50:55.000Z,32.3
2018-07-04T01:51:55.000Z,32.3
2018-07-04T01:53:55.000Z,32.4
2018-07-04T01:54:55.000Z,32.4
2018-07-04T01:56:40.000Z,32.4
2018-07-04T01:57:55.000Z,32.4
2018-07-04T01:58:55.000Z,32.4
2018-07-04T01:59:55.000Z,32.4
2018-07-04T02:01:55.000Z,32.4
2018-07-04T02:02:55.000Z,32.4
2018-07-04T02:03:55.000Z,32.5
2018-07-04T02:05:40.000Z,32.5
2018-07-04T02:06:55.000Z,32.5
2018-07-04T02:08:55.000Z,32.5
2018-07-04T02:11:55.000Z,32.5
2018-07-04T02:12:55.000Z,32.5
2018-07-04T02:14:55.000Z,32.5
2018-07-04T02:16:55.000Z,32.5
2018-07-04T02:18:55.000Z,32.4
2018-07-04T02:19:55.000Z,32.4
2018-07-04T02:21:40.000Z,32.4
2018-07-04T02:22:55.000Z,32.4
2018-07-04T02:24:40.000Z,32.4
2018-07-04T02:25:55.000Z,32.3
2018-07-04T02:26:55.000Z,32.4
2018-07-04T02:27:55.000Z,32.4
2018-07-04T02:28:55.000Z,32.4
2018-07-04T02:29:55.000Z,32.5
2018-07-04T02:31:55.000Z,32.5
2018-07-04T02:33:55.000Z,32.4
2018-07-04T02:35:55.000Z,32.3
2018-07-04T02:37:55.000Z,32.3
2018-07-04T02:38:55.000Z,32.3
2018-07-04T02:39:55.000Z,32.3
2018-07-04T02:40:55.000Z,32.4
2018-07-04T02:42:55.000Z,32.5
2018-07-04T02:43:55.000Z,32.5
2018-07-04T02:45:40.000Z,32.5
2018-07-04T02:46:55.000Z,32.4
2018-07-04T02:47:55.000Z,32.4
2018-07-04T02:49:55.000Z,32.4
2018-07-04T02:51:55.000Z,32.3
2018-07-04T02:52:55.000Z,32.3
2018-07-04T02:54:55.000Z,32.3
2018-07-04T02:56:55.000Z,32.3
2018-07-04T02:57:55.000Z,32.3
2018-07-04T02:58:55.000Z,32.4
2018-07-04T03:00:55.000Z,32.5
2018-07-04T03:01:55.000Z,32.5
2018-07-04T03:03:55.000Z,32.5
2018-07-04T03:05:55.000Z,32.5
2018-07-04T03:07:55.000Z,32.4
2018-07-04T03:08:55.000Z,32.4
2018-07-04T03:10:55.000Z,32.4
2018-07-04T03:11:55.000Z,32.4
2018-07-04T03:13:55.000Z,32.4
2018-07-04T03:15:55.000Z,32.3
2018-07-04T03:17:40.000Z,32.3
2018-07-04T03:18:55.000Z,32.3
2018-07-04T03:19:55.000Z,32.3
2018-07-04T03:21:40.000Z,32.3
2018-07-04T03:22:55.000Z,32.3
2018-07-04T03:24:55.000Z,32.3
2018-07-04T03:25:55.000Z,32.3
2018-07-04T03:26:55.000Z,32.4
2018-07-04T03:30:41.000Z,32
2018-07-04T03:32:41.000Z,32
2018-07-04T03:34:41.000Z,32
2018-07-04T03:35:41.000Z,32
2018-07-04T03:37:41.000Z,32.1
2018-07-04T03:39:41.000Z,32.1
2018-07-04T03:41:41.000Z,32.2
2018-07-04T03:42:41.000Z,32.2
2018-07-04T03:44:41.000Z,32.3
2018-07-04T03:46:41.000Z,32.3
2018-07-04T03:48:41.000Z,32.2
2018-07-04T03:49:41.000Z,32.2
2018-07-04T03:51:41.000Z,32.2
2018-07-04T03:53:41.000Z,32.2
2018-07-04T03:54:41.000Z,32.2
2018-07-04T03:56:41.000Z,32.2
2018-07-04T03:58:41.000Z,32.3
2018-07-04T03:59:41.000Z,32.3
2018-07-04T04:01:26.000Z,32.4
2018-07-04T04:02:41.000Z,32.4
2018-07-04T04:03:41.000Z,32.4
2018-07-04T04:04:41.000Z,32.4
2018-07-04T04:06:26.000Z,32.5
2018-07-04T04:07:41.000Z,32.4
2018-07-04T04:08:41.000Z,32.4
2018-07-04T04:10:41.000Z,32.4
2018-07-04T04:11:41.000Z,32.4
2018-07-04T04:13:41.000Z,32.4
2018-07-04T04:14:41.000Z,32.5
2018-07-04T04:15:41.000Z,32.5
2018-07-04T04:17:41.000Z,32.5
2018-07-04T04:18:41.000Z,32.5
2018-07-04T04:19:41.000Z,32.6
2018-07-04T04:20:41.000Z,32.6
2018-07-04T04:22:41.000Z,32.6
2018-07-04T04:24:41.000Z,32.6
2018-07-04T04:26:41.000Z,32.5
2018-07-04T04:27:41.000Z,32.4
2018-07-04T04:29:41.000Z,32
2018-07-04T04:30:41.000Z,31.8
2018-07-04T04:31:41.000Z,31.5
2018-07-04T04:33:41.000Z,30
2018-07-04T04:34:41.000Z,29.4
2018-07-04T04:35:41.000Z,28.9
2018-07-04T04:37:41.000Z,28.1
2018-07-04T04:38:41.000Z,27.9
2018-07-04T04:40:41.000Z,27.4
2018-07-04T04:41:41.000Z,27.3
2018-07-04T04:43:25.000Z,27
2018-07-04T04:44:41.000Z,26.8
2018-07-04T04:46:41.000Z,26.7
2018-07-04T04:47:41.000Z,26.7
2018-07-04T04:49:25.000Z,26.6
2018-07-04T04:50:41.000Z,26.5
2018-07-04T04:51:41.000Z,26.4
2018-07-04T04:53:41.000Z,26.4
2018-07-04T04:55:41.000Z,26.2
2018-07-04T04:57:41.000Z,26.1
2018-07-04T04:59:41.000Z,26
2018-07-04T05:01:41.000Z,26
2018-07-04T05:03:41.000Z,26
2018-07-04T05:05:41.000Z,26
2018-07-04T05:07:41.000Z,26
2018-07-04T05:08:41.000Z,26
2018-07-04T05:10:41.000Z,26.1
2018-07-04T05:11:41.000Z,26.1
2018-07-04T05:12:41.000Z,26.2
2018-07-04T05:14:41.000Z,26.1
2018-07-04T05:16:25.000Z,26
2018-07-04T05:17:41.000Z,26
2018-07-04T05:19:25.000Z,26
2018-07-04T05:20:41.000Z,25.9
2018-07-04T05:22:25.000Z,25.9
2018-07-04T05:23:41.000Z,25.8
2018-07-04T05:24:41.000Z,25.9
2018-07-04T05:26:41.000Z,25.9
2018-07-04T05:28:41.000Z,25.9
2018-07-04T05:29:41.000Z,26
2018-07-04T05:31:41.000Z,26.1
2018-07-04T05:32:41.000Z,26.2
2018-07-04T05:34:41.000Z,26.3
2018-07-04T05:36:41.000Z,26.3
2018-07-04T05:38:25.000Z,26.4
2018-07-04T05:39:41.000Z,26.2
2018-07-04T05:40:41.000Z,26.2
2018-07-04T05:41:41.000Z,26.3
2018-07-04T05:43:41.000Z,26.5
2018-07-04T05:45:41.000Z,26.9
2018-07-04T05:47:41.000Z,27.4
2018-07-04T05:49:41.000Z,27.8
2018-07-04T05:50:41.000Z,28
2018-07-04T05:52:41.000Z,28.3
2018-07-04T05:53:41.000Z,28.4
2018-07-04T05:54:41.000Z,28.6
2018-07-04T05:56:41.000Z,28.9
2018-07-04T05:57:41.000Z,29
2018-07-04T05:58:41.000Z,29.1
2018-07-04T05:59:41.000Z,29.3
2018-07-04T06:01:25.000Z,29.4
2018-07-04T06:02:41.000Z,29.4
2018-07-04T06:03:41.000Z,29.4
2018-07-04T06:05:41.000Z,29.4
2018-07-04T06:07:41.000Z,29.2
2018-07-04T06:08:41.000Z,29
2018-07-04T06:10:41.000Z,28.6
2018-07-04T06:12:41.000Z,28.1
2018-07-04T06:13:41.000Z,27.8
2018-07-04T06:14:41.000Z,27.6
2018-07-04T06:16:41.000Z,27.4
2018-07-04T06:17:41.000Z,27.3
2018-07-04T06:19:41.000Z,27.2
2018-07-04T06:20:41.000Z,27.2
2018-07-04T06:22:41.000Z,27.1
2018-07-04T06:24:41.000Z,27.2
2018-07-04T06:25:41.000Z,27.2
2018-07-04T06:27:41.000Z,27.3
2018-07-04T06:29:41.000Z,27.3
2018-07-04T06:30:41.000Z,27.2
2018-07-04T06:32:41.000Z,27.3
2018-07-04T06:33:41.000Z,27.3
2018-07-04T06:34:41.000Z,27.4
2018-07-04T06:35:41.000Z,27.4
2018-07-04T06:37:41.000Z,27.3
2018-07-04T06:39:41.000Z,27.2
2018-07-04T06:40:41.000Z,27.2
2018-07-04T06:42:41.000Z,27.4
2018-07-04T06:44:41.000Z,27.5
2018-07-04T06:45:41.000Z,27.5
2018-07-04T06:46:41.000Z,27.5
2018-07-04T06:48:41.000Z,27.6
2018-07-04T06:49:41.000Z,27.7
2018-07-04T06:51:41.000Z,27.9
2018-07-04T06:52:41.000Z,27.9
2018-07-04T06:53:41.000Z,28
2018-07-04T06:55:41.000Z,28.2
2018-07-04T06:57:41.000Z,28.2
2018-07-04T06:58:41.000Z,28.2
2018-07-04T07:00:41.000Z,28.3
2018-07-04T07:01:41.000Z,28.3
2018-07-04T07:03:41.000Z,28.5
2018-07-04T07:05:41.000Z,28.5
2018-07-04T07:06:41.000Z,28.6
2018-07-04T07:07:41.000Z,28.7
2018-07-04T07:08:41.000Z,28.8
2018-07-04T07:10:41.000Z,28.9
2018-07-04T07:11:41.000Z,28.9
2018-07-04T07:13:41.000Z,29
2018-07-04T07:14:41.000Z,29
2018-07-04T07:15:41.000Z,29.1
2018-07-04T07:16:41.000Z,29.2
2018-07-04T07:18:41.000Z,29.4
2018-07-04T07:19:41.000Z,29.4
2018-07-04T07:20:41.000Z,29.5
2018-07-04T07:21:41.000Z,29.5
2018-07-04T07:22:41.000Z,29.5
2018-07-04T07:24:41.000Z,29.6
2018-07-04T07:25:41.000Z,29.8
2018-07-04T07:27:41.000Z,29.9
2018-07-04T07:29:41.000Z,29.9
2018-07-04T07:30:41.000Z,30
2018-07-04T07:32:41.000Z,30.2
2018-07-04T07:33:41.000Z,30.3
2018-07-04T07:35:26.000Z,30.5
2018-07-04T07:36:41.000Z,30.5
2018-07-04T07:38:26.000Z,30.6
2018-07-04T07:39:41.000Z,30.5
2018-07-04T07:41:41.000Z,30.5
2018-07-04T07:43:41.000Z,30.4
2018-07-04T07:44:41.000Z,30.4
2018-07-04T07:46:41.000Z,30.6
2018-07-04T07:47:41.000Z,30.6
2018-07-04T07:49:25.000Z,30.8
2018-07-04T07:50:41.000Z,30.9
2018-07-04T07:51:41.000Z,31
2018-07-04T07:52:41.000Z,31.1
2018-07-04T07:54:41.000Z,31.1
2018-07-04T07:55:41.000Z,31.1
2018-07-04T07:56:41.000Z,31.1
2018-07-04T07:57:41.000Z,31.3
2018-07-04T07:58:41.000Z,31.4
2018-07-04T08:00:41.000Z,31.5
2018-07-04T08:02:41.000Z,31.6
2018-07-04T08:04:41.000Z,31.7
2018-07-04T08:05:41.000Z,31.8
2018-07-04T08:07:41.000Z,32
2018-07-04T08:09:41.000Z,32
2018-07-04T08:10:41.000Z,32.1
2018-07-04T08:11:41.000Z,32.2
2018-07-04T08:13:41.000Z,32.3
2018-07-04T08:14:41.000Z,32.4
2018-07-04T08:16:41.000Z,32.7
2018-07-04T08:17:41.000Z,32.8
2018-07-04T08:19:41.000Z,32.9
2018-07-04T08:20:41.000Z,32.9
2018-07-04T08:21:41.000Z,33
2018-07-04T08:23:41.000Z,33.1
2018-07-04T08:25:41.000Z,33.2
2018-07-04T08:27:41.000Z,33.4
2018-07-04T08:28:41.000Z,33.5
2018-07-04T08:30:41.000Z,33.6
2018-07-04T08:32:41.000Z,33.5
2018-07-04T08:33:41.000Z,33.5
2018-07-04T08:35:41.000Z,33.8
2018-07-04T08:37:41.000Z,34.5
2018-07-04T08:38:41.000Z,35
2018-07-04T08:40:41.000Z,35.3
2018-07-04T08:41:41.000Z,35.3
2018-07-04T08:43:41.000Z,35.2
2018-07-04T08:45:41.000Z,35.3
2018-07-04T08:47:40.000Z,35.3
2018-07-04T08:48:40.000Z,35.2
2018-07-04T08:50:40.000Z,35
2018-07-04T08:51:40.000Z,34.9
2018-07-04T08:53:40.000Z,34.8
2018-07-04T08:55:40.000Z,34.6
2018-07-04T08:57:40.000Z,34.5
2018-07-04T08:59:40.000Z,34.4
2018-07-04T09:00:40.000Z,34.3
2018-07-04T09:01:40.000Z,34.3
2018-07-04T09:03:40.000Z,34.2
2018-07-04T09:05:40.000Z,34.2
2018-07-04T09:07:40.000Z,34.1
2018-07-04T09:09:40.000Z,34
2018-07-04T09:10:40.000Z,34
2018-07-04T09:12:40.000Z,34.1
2018-07-04T09:14:40.000Z,34.1
2018-07-04T09:16:40.000Z,34.1
2018-07-04T09:17:40.000Z,34.1
2018-07-04T09:19:40.000Z,34.2
2018-07-04T09:20:40.000Z,34.3
2018-07-04T09:22:40.000Z,34.3
2018-07-04T09:23:40.000Z,34.4
2018-07-04T09:25:40.000Z,34.4
2018-07-04T09:27:40.000Z,34.5
2018-07-04T09:29:40.000Z,34.5
2018-07-04T09:31:40.000Z,34.5
2018-07-04T09:33:40.000Z,34.5
2018-07-04T09:35:40.000Z,34.5
2018-07-04T09:36:40.000Z,34.6
2018-07-04T09:38:40.000Z,34.6
2018-07-04T09:40:40.000Z,34.7
2018-07-04T09:41:40.000Z,34.8
2018-07-04T09:42:40.000Z,34.9
2018-07-04T09:44:40.000Z,34.9
2018-07-04T09:45:40.000Z,35
2018-07-04T09:47:40.000Z,35.1
2018-07-04T09:48:40.000Z,35.1
2018-07-04T09:50:40.000Z,35.2
2018-07-04T09:52:41.000Z,35.2
2018-07-04T09:53:41.000Z,35.2
2018-07-04T09:55:25.000Z,35.3
2018-07-04T09:56:41.000Z,35.3
2018-07-04T09:57:41.000Z,35.3
2018-07-04T09:58:41.000Z,35.4
2018-07-04T10:00:41.000Z,35.5
2018-07-04T10:01:41.000Z,35.5
2018-07-04T10:03:41.000Z,35.6
2018-07-04T10:05:41.000Z,35.5
2018-07-04T10:06:41.000Z,35.5
2018-07-04T10:08:41.000Z,35.5
2018-07-04T10:10:41.000Z,35.5
2018-07-04T10:12:41.000Z,35.5
2018-07-04T10:13:41.000Z,35.4
2018-07-04T10:15:41.000Z,35.4
2018-07-04T10:17:41.000Z,35.5
2018-07-04T10:18:41.000Z,35.5
2018-07-04T10:20:41.000Z,35.6
2018-07-04T10:22:41.000Z,35.6
2018-07-04T10:24:41.000Z,35.6
2018-07-04T10:25:41.000Z,35.6
2018-07-04T10:27:41.000Z,35.7
2018-07-04T10:29:26.000Z,35.7
2018-07-04T10:30:41.000Z,35.8
2018-07-04T10:32:41.000Z,35.8
2018-07-04T10:34:41.000Z,35.8
2018-07-04T10:36:41.000Z,35.8
2018-07-04T10:38:41.000Z,35.8
2018-07-04T10:40:41.000Z,35.8
2018-07-04T10:42:41.000Z,35.8
2018-07-04T10:43:41.000Z,35.8
2018-07-04T10:45:41.000Z,36
2018-07-04T10:47:41.000Z,36
2018-07-04T10:49:41.000Z,36
2018-07-04T10:50:41.000Z,36
2018-07-04T10:51:41.000Z,36.1
2018-07-04T10:53:25.000Z,36.2
2018-07-04T10:54:41.000Z,36.2
2018-07-04T10:56:41.000Z,36.2
2018-07-04T10:57:41.000Z,36.2
2018-07-04T10:59:26.000Z,36.3
2018-07-04T11:00:41.000Z,36.2
2018-07-04T11:01:41.000Z,36.2
2018-07-04T11:02:41.000Z,36.3
2018-07-04T11:04:41.000Z,36.2
2018-07-04T11:05:41.000Z,36.2
2018-07-04T11:07:41.000Z,36.1
2018-07-04T11:09:41.000Z,36
2018-07-04T11:11:41.000Z,36
2018-07-04T11:13:41.000Z,35.9
2018-07-04T11:15:41.000Z,35.7
2018-07-04T11:16:41.000Z,35.7
2018-07-04T11:17:41.000Z,35.7
2018-07-04T11:19:41.000Z,35.7
2018-07-04T11:20:41.000Z,35.7
2018-07-04T11:21:41.000Z,35.7
2018-07-04T11:23:41.000Z,35.8
2018-07-04T11:25:41.000Z,35.8
2018-07-04T11:27:41.000Z,35.7
2018-07-04T11:29:41.000Z,34.9
2018-07-04T11:30:41.000Z,34.6
2018-07-04T11:32:26.000Z,34.3
2018-07-04T11:33:41.000Z,34
2018-07-04T11:35:26.000Z,33.5
2018-07-04T11:36:41.000Z,33.1
2018-07-04T11:38:41.000Z,32.6
2018-07-04T11:39:41.000Z,32.5
2018-07-04T11:41:41.000Z,32.4
2018-07-04T11:43:41.000Z,32.1
2018-07-04T11:45:26.000Z,32
2018-07-04T11:46:41.000Z,32
2018-07-04T11:48:26.000Z,32.3
2018-07-04T11:49:41.000Z,32.4
2018-07-04T11:50:41.000Z,32.5
2018-07-04T11:52:41.000Z,32.8
2018-07-04T11:53:41.000Z,32.9
2018-07-04T11:55:41.000Z,33.1
2018-07-04T11:57:41.000Z,33.1
2018-07-04T11:59:41.000Z,33.2
2018-07-04T12:01:41.000Z,33.2
2018-07-04T12:03:41.000Z,33.3
2018-07-04T12:05:41.000Z,33.3
2018-07-04T12:06:41.000Z,33.4
2018-07-04T12:08:41.000Z,33.4
2018-07-04T12:10:41.000Z,33.5
2018-07-04T12:11:41.000Z,33.5
2018-07-04T12:13:41.000Z,33.6
2018-07-04T12:14:41.000Z,33.6
2018-07-04T12:15:41.000Z,33.7
2018-07-04T12:17:41.000Z,33.9
2018-07-04T12:19:41.000Z,34
2018-07-04T12:21:41.000Z,34.1
2018-07-04T12:23:41.000Z,34.1
2018-07-04T12:24:41.000Z,34
2018-07-04T12:25:41.000Z,34.1
2018-07-04T12:27:41.000Z,34.1
2018-07-04T12:28:41.000Z,34.1
2018-07-04T12:30:41.000Z,34.2
2018-07-04T12:32:41.000Z,34.2
2018-07-04T12:33:41.000Z,34.2
2018-07-04T12:35:41.000Z,34.2
2018-07-04T12:37:26.000Z,34.1
2018-07-04T12:38:41.000Z,34.1
2018-07-04T12:40:41.000Z,34.1
2018-07-04T12:41:41.000Z,34.1
2018-07-04T12:43:41.000Z,34.1
2018-07-04T12:45:41.000Z,34
2018-07-04T12:46:41.000Z,34
2018-07-04T12:48:41.000Z,34
2018-07-04T12:50:41.000Z,34
2018-07-04T12:51:41.000Z,34
2018-07-04T12:53:41.000Z,34
2018-07-04T12:54:41.000Z,34
2018-07-04T12:55:41.000Z,34
2018-07-04T12:56:41.000Z,34
2018-07-04T12:58:41.000Z,34
2018-07-04T13:00:41.000Z,34
2018-07-04T13:02:41.000Z,33.9
2018-07-04T13:03:41.000Z,33.9
2018-07-04T13:05:41.000Z,33.9
2018-07-04T13:07:41.000Z,33.9
2018-07-04T13:09:41.000Z,33.8
2018-07-04T13:11:41.000Z,33.9
2018-07-04T13:13:41.000Z,33.9
2018-07-04T13:14:41.000Z,33.9
2018-07-04T13:16:41.000Z,34
2018-07-04T13:18:41.000Z,34.1
2018-07-04T13:19:41.000Z,34.1
2018-07-04T13:21:41.000Z,34.2
2018-07-04T13:22:41.000Z,34.2
2018-07-04T13:24:41.000Z,34.3
2018-07-04T13:26:26.000Z,34.3
2018-07-04T13:27:41.000Z,34.2
2018-07-04T13:29:41.000Z,34.3
2018-07-04T13:31:41.000Z,34.3
2018-07-04T13:32:41.000Z,34.3
2018-07-04T13:34:41.000Z,34.4
2018-07-04T13:36:26.000Z,34.4
2018-07-04T13:37:41.000Z,34.4
2018-07-04T13:39:41.000Z,34.4
2018-07-04T13:41:41.000Z,34.5
2018-07-04T13:42:41.000Z,34.5
2018-07-04T13:44:41.000Z,34.6
2018-07-04T13:45:41.000Z,34.7
2018-07-04T13:47:41.000Z,34.8
2018-07-04T13:48:41.000Z,34.9
2018-07-04T13:49:41.000Z,34.9
2018-07-04T13:51:41.000Z,35
2018-07-04T13:52:41.000Z,35
2018-07-04T13:54:41.000Z,35.1
2018-07-04T13:56:26.000Z,35.1
2018-07-04T13:57:41.000Z,35.1
2018-07-04T13:59:41.000Z,35.1
2018-07-04T14:00:41.000Z,35.1
2018-07-04T14:02:41.000Z,35.2
2018-07-04T14:03:41.000Z,35.2
2018-07-04T14:05:41.000Z,35.2
2018-07-04T14:06:40.000Z,35.2
2018-07-04T14:08:25.000Z,35.3
2018-07-04T14:09:40.000Z,35.2
2018-07-04T14:10:40.000Z,35.3
2018-07-04T14:12:40.000Z,35.3
2018-07-04T14:14:40.000Z,35.3
2018-07-04T14:15:40.000Z,35.3
2018-07-04T14:17:25.000Z,35.4
2018-07-04T14:18:40.000Z,35.4
2018-07-04T14:19:40.000Z,35.4
2018-07-04T14:21:40.000Z,35.3
2018-07-04T14:23:40.000Z,35.1
2018-07-04T14:25:40.000Z,35
2018-07-04T14:26:40.000Z,34.9
2018-07-04T14:28:40.000Z,34.8
2018-07-04T14:30:40.000Z,34.6
2018-07-04T14:32:40.000Z,34.5
2018-07-04T14:34:40.000Z,34.4
2018-07-04T14:35:40.000Z,34.3
2018-07-04T14:37:40.000Z,34.3
2018-07-04T14:39:25.000Z,34.4
2018-07-04T14:40:40.000Z,34.3
2018-07-04T14:41:40.000Z,34.4
2018-07-04T14:43:25.000Z,34.4
2018-07-04T14:44:40.000Z,34.4
2018-07-04T14:46:40.000Z,34.3
2018-07-04T14:47:40.000Z,34.4
2018-07-04T14:48:40.000Z,34.4
2018-07-04T14:50:40.000Z,34.5
2018-07-04T14:51:40.000Z,34.6
2018-07-04T14:53:40.000Z,34.6
2018-07-04T14:55:40.000Z,34.6
2018-07-04T14:56:40.000Z,34.5
2018-07-04T14:58:40.000Z,34.5
2018-07-04T15:00:40.000Z,34.5
2018-07-04T15:02:40.000Z,34.4
2018-07-04T15:04:40.000Z,34.5
2018-07-04T15:06:40.000Z,34.4
2018-07-04T15:08:40.000Z,34.3
2018-07-04T15:10:41.000Z,34.3
2018-07-04T15:11:41.000Z,34.3
2018-07-04T15:13:41.000Z,34.4
2018-07-04T15:15:41.000Z,34.4
2018-07-04T15:17:41.000Z,34.4
2018-07-04T15:18:41.000Z,34.4
2018-07-04T15:20:41.000Z,34.5
2018-07-04T15:21:41.000Z,34.5
2018-07-04T15:23:26.000Z,34.6
2018-07-04T15:24:41.000Z,34.6
2018-07-04T15:25:41.000Z,34.6
2018-07-04T15:27:26.000Z,34.7
2018-07-04T15:28:41.000Z,34.7
2018-07-04T15:30:26.000Z,34.7
2018-07-04T15:31:41.000Z,34.7
2018-07-04T15:32:41.000Z,34.7
2018-07-04T15:33:41.000Z,34.7
2018-07-04T15:35:41.000Z,34.8
2018-07-04T15:36:41.000Z,34.8
2018-07-04T15:38:41.000Z,34.8
2018-07-04T15:40:41.000Z,34.8
2018-07-04T15:42:41.000Z,34.7
2018-07-04T15:44:41.000Z,34.6
2018-07-04T15:45:41.000Z,34.5
2018-07-04T15:46:41.000Z,34.6
2018-07-04T15:48:26.000Z,34.7
2018-07-04T15:49:41.000Z,34.6
2018-07-04T15:50:41.000Z,34.6
2018-07-04T15:52:41.000Z,34.6
2018-07-04T15:54:41.000Z,34.6
2018-07-04T15:55:41.000Z,34.7
2018-07-04T15:56:41.000Z,34.7
2018-07-04T15:57:41.000Z,34.7
2018-07-04T15:59:41.000Z,34.7
2018-07-04T16:00:41.000Z,34.7
2018-07-04T16:01:41.000Z,34.8
2018-07-04T16:03:41.000Z,34.8
2018-07-04T16:05:41.000Z,34.7
2018-07-04T16:06:41.000Z,34.7
2018-07-04T16:07:41.000Z,34.8
2018-07-04T16:09:26.000Z,34.8
2018-07-04T16:10:41.000Z,34.7
2018-07-04T16:11:41.000Z,34.8
2018-07-04T16:13:41.000Z,34.8
2018-07-04T16:15:41.000Z,34.7
2018-07-04T16:16:41.000Z,34.7
2018-07-04T16:18:41.000Z,34.7
2018-07-04T16:20:41.000Z,34.7
2018-07-04T16:21:41.000Z,34.7
2018-07-04T16:23:41.000Z,34.6
2018-07-04T16:25:41.000Z,34.6
2018-07-04T16:26:41.000Z,34.6
2018-07-04T16:28:41.000Z,34.6
2018-07-04T16:30:41.000Z,34.6
2018-07-04T16:31:41.000Z,34.6
2018-07-04T16:32:41.000Z,34.7
2018-07-04T16:34:41.000Z,34.7
2018-07-04T16:35:41.000Z,34.7
2018-07-04T16:37:41.000Z,34.7
2018-07-04T16:39:41.000Z,34.7
2018-07-04T16:40:41.000Z,34.7
2018-07-04T16:42:41.000Z,34.7
2018-07-04T16:43:41.000Z,34.7
2018-07-04T16:44:41.000Z,34.8
2018-07-04T16:46:26.000Z,34.8
2018-07-04T16:47:41.000Z,34.8
2018-07-04T16:48:41.000Z,34.8
2018-07-04T16:49:41.000Z,34.8
2018-07-04T16:50:41.000Z,34.9
2018-07-04T16:52:41.000Z,34.8
2018-07-04T16:53:41.000Z,34.7
2018-07-04T16:55:41.000Z,34.7
2018-07-04T16:56:41.000Z,34.7
2018-07-04T16:58:41.000Z,34.7
2018-07-04T17:00:26.000Z,34.7
2018-07-04T17:01:41.000Z,34.6
2018-07-04T17:02:41.000Z,34.6
2018-07-04T17:03:41.000Z,34.6
2018-07-04T17:05:41.000Z,34.6
2018-07-04T17:07:41.000Z,34.6
2018-07-04T17:08:41.000Z,34.5
2018-07-04T17:10:41.000Z,34.5
2018-07-04T17:12:41.000Z,34.5
2018-07-04T17:14:41.000Z,34.5
2018-07-04T17:15:41.000Z,34.5
2018-07-04T17:17:26.000Z,34.5
2018-07-04T17:18:41.000Z,34.5
2018-07-04T17:19:41.000Z,34.5
2018-07-04T17:20:41.000Z,34.6
2018-07-04T17:22:41.000Z,34.5
2018-07-04T17:23:41.000Z,34.5
2018-07-04T17:25:41.000Z,34.5
2018-07-04T17:27:41.000Z,34.5
2018-07-04T17:29:26.000Z,34.5
2018-07-04T17:30:41.000Z,34.5
2018-07-04T17:32:41.000Z,34.5
2018-07-04T17:33:41.000Z,34.5
2018-07-04T17:35:41.000Z,34.5
2018-07-04T17:37:41.000Z,34.5
2018-07-04T17:38:41.000Z,34.5
2018-07-04T17:40:41.000Z,34.5
2018-07-04T17:42:41.000Z,34.5
2018-07-04T17:43:41.000Z,34.5
2018-07-04T17:44:41.000Z,34.5
2018-07-04T17:46:41.000Z,34.5
2018-07-04T17:48:26.000Z,34.5
2018-07-04T17:49:41.000Z,34.4
2018-07-04T17:50:41.000Z,34.4
2018-07-04T17:51:41.000Z,34.5
2018-07-04T17:52:41.000Z,34.5
2018-07-04T17:54:41.000Z,34.5
2018-07-04T17:55:41.000Z,34.5
2018-07-04T17:56:41.000Z,34.6
2018-07-04T17:58:41.000Z,34.6
2018-07-04T18:00:41.000Z,34.5
2018-07-04T18:02:41.000Z,34.5
2018-07-04T18:03:41.000Z,34.5
2018-07-04T18:05:41.000Z,34.5
2018-07-04T18:07:41.000Z,34.5
2018-07-04T18:09:41.000Z,34.4
2018-07-04T18:10:41.000Z,34.4
2018-07-04T18:12:41.000Z,34.4
2018-07-04T18:14:41.000Z,34.4
2018-07-04T18:16:41.000Z,34.3
2018-07-04T18:18:41.000Z,34.3
2018-07-04T18:19:41.000Z,34.3
2018-07-04T18:21:41.000Z,34.2
2018-07-04T18:22:41.000Z,34.2
2018-07-04T18:23:41.000Z,34.3
2018-07-04T18:25:41.000Z,34.3
2018-07-04T18:27:41.000Z,34.3
2018-07-04T18:28:41.000Z,34.3
2018-07-04T18:30:41.000Z,34.3
2018-07-04T18:31:41.000Z,34.3
2018-07-04T18:32:41.000Z,34.3
2018-07-04T18:33:41.000Z,34.4
2018-07-04T18:35:41.000Z,34.4
2018-07-04T18:37:41.000Z,34.4
2018-07-04T18:39:41.000Z,34.3
2018-07-04T18:40:41.000Z,34.3
2018-07-04T18:42:41.000Z,34.4
2018-07-04T18:44:41.000Z,34.3
2018-07-04T18:45:41.000Z,34.2
2018-07-04T18:47:41.000Z,34.2
2018-07-04T18:48:41.000Z,34.2
2018-07-04T18:49:41.000Z,34.2
2018-07-04T18:51:41.000Z,34.2
2018-07-04T18:53:26.000Z,34.1
2018-07-04T18:54:41.000Z,34.1
2018-07-04T18:55:41.000Z,34.1
2018-07-04T18:57:41.000Z,34.1
2018-07-04T18:59:41.000Z,34
2018-07-04T19:00:41.000Z,34.1
2018-07-04T19:02:26.000Z,34.1
2018-07-04T19:03:41.000Z,34.1
2018-07-04T19:04:41.000Z,34.1
2018-07-04T19:05:41.000Z,34.2
2018-07-04T19:07:41.000Z,34.2
2018-07-04T19:09:41.000Z,34.1
2018-07-04T19:10:41.000Z,34.1
2018-07-04T19:11:41.000Z,34.2
2018-07-04T19:12:41.000Z,34.2
2018-07-04T19:14:26.000Z,34.2
2018-07-04T19:15:41.000Z,34.2
2018-07-04T19:16:41.000Z,34.2
2018-07-04T19:18:41.000Z,34.1
2018-07-04T19:19:41.000Z,34.1
2018-07-04T19:20:41.000Z,34.2
2018-07-04T19:22:26.000Z,34.2
2018-07-04T19:23:41.000Z,34.1
2018-07-04T19:25:40.000Z,34.1
2018-07-04T19:27:40.000Z,34
2018-07-04T19:29:40.000Z,34
2018-07-04T19:31:40.000Z,33.9
2018-07-04T19:33:25.000Z,33.8
2018-07-04T19:34:40.000Z,33.8
2018-07-04T19:35:40.000Z,33.8
2018-07-04T19:37:40.000Z,33.8
2018-07-04T19:39:40.000Z,33.8
2018-07-04T19:41:40.000Z,33.8
2018-07-04T19:42:40.000Z,33.8
2018-07-04T19:44:40.000Z,33.9
2018-07-04T19:46:40.000Z,33.8
2018-07-04T19:48:40.000Z,33.8
2018-07-04T19:50:40.000Z,33.8
2018-07-04T19:52:40.000Z,33.8
2018-07-04T19:54:40.000Z,33.7
2018-07-04T19:55:40.000Z,33.8
2018-07-04T19:56:40.000Z,33.8
2018-07-04T19:58:40.000Z,33.8
2018-07-04T20:00:25.000Z,33.7
2018-07-04T20:01:40.000Z,33.7
2018-07-04T20:02:40.000Z,33.8
2018-07-04T20:03:40.000Z,33.8
2018-07-04T20:05:40.000Z,33.9
2018-07-04T20:07:40.000Z,33.9
2018-07-04T20:08:40.000Z,33.9
2018-07-04T20:09:40.000Z,33.9
2018-07-04T20:11:40.000Z,34
2018-07-04T20:13:40.000Z,34
2018-07-04T20:14:40.000Z,34
2018-07-04T20:16:40.000Z,34
2018-07-04T20:17:40.000Z,34
2018-07-04T20:18:40.000Z,34.1
2018-07-04T20:20:40.000Z,34
2018-07-04T20:21:40.000Z,34
2018-07-04T20:23:40.000Z,34
2018-07-04T20:24:40.000Z,34
2018-07-04T20:26:40.000Z,34
2018-07-04T20:27:40.000Z,34
2018-07-04T20:28:41.000Z,34.1
2018-07-04T20:29:41.000Z,34.1
2018-07-04T20:31:41.000Z,34.1
2018-07-04T20:32:41.000Z,34.1
2018-07-04T20:34:41.000Z,34
2018-07-04T20:36:41.000Z,34
2018-07-04T20:37:41.000Z,34
2018-07-04T20:38:41.000Z,34
2018-07-04T20:40:41.000Z,34
2018-07-04T20:41:41.000Z,34
2018-07-04T20:43:41.000Z,34
2018-07-04T20:45:41.000Z,34
2018-07-04T20:47:41.000Z,33.9
2018-07-04T20:49:26.000Z,33.8